Northway Airport Northway US
ICAO: PAOR
IATA:
Category: Medium
Scheduled Services:

Elevation: 1715 ft
TransAlt. 18000 ft.

Airport Communications:
ASOS:135.4
ANCHORAGE CNTR:126.55
CTAF:123.6
RDO:122.2
SUAS INFO SVC:125.3

PAOR Zoom In..

If you have problems with the map follow the link
https://www.worldairports.se/pages/airport.php?
ICAO=PAOR

Runways:

(A) RW 05 length 5100 ft width 100 ft
---- / hdg 52

(B) RW 23 length 5100 ft width 100 ft
---- / hdg 232

Location; PAOR
Day. 16 / Time. 02.53 Zulu
* Altimeter: 30.38
* Temperature: -11° c. -12.2°f.
* Wind from: 090° Speed 05 kn.
Dewpoint: -13° c.
Visibility: 6 Statute Miles.
Clouds: Broken 1100 ft.
Clouds: Overcast 1800 ft.
Conditions: Light Snow.Conditions: Mist.

PAOR 160253Z 09005KT 6SM -SN BR BKN011 OVC018 M11/M13 A3038 RMK AO2 SLP340 T11111128 53005


Wind From 090°
Speed 05 kn.

 
 
jpsmedia.com for Web Design worldairports.se 2018   terms of use